sensor_id;sensor_type;location;lat;lon;timestamp;P1;durP1;ratioP1;P2;durP2;ratioP2
71896;SDS011;59767;51.344;12.362;2023-08-21T00:02:07;10.15;;;3.05;;
71896;SDS011;59767;51.344;12.362;2023-08-21T00:05:11;11.75;;;3.33;;
71896;SDS011;59767;51.344;12.362;2023-08-21T00:08:16;8.13;;;3.25;;
71896;SDS011;59767;51.344;12.362;2023-08-21T00:11:20;9.93;;;3.35;;
71896;SDS011;59767;51.344;12.362;2023-08-21T00:14:24;9.95;;;3.28;;
71896;SDS011;59767;51.344;12.362;2023-08-21T00:17:29;9.30;;;3.38;;
71896;SDS011;59767;51.344;12.362;2023-08-21T00:20:35;8.82;;;3.20;;
71896;SDS011;59767;51.344;12.362;2023-08-21T00:23:39;9.60;;;3.10;;
71896;SDS011;59767;51.344;12.362;2023-08-21T00:26:43;11.98;;;3.50;;
71896;SDS011;59767;51.344;12.362;2023-08-21T00:29:47;9.13;;;3.40;;
71896;SDS011;59767;51.344;12.362;2023-08-21T00:32:51;8.45;;;3.70;;
71896;SDS011;59767;51.344;12.362;2023-08-21T00:35:55;11.57;;;3.75;;
71896;SDS011;59767;51.344;12.362;2023-08-21T00:38:59;9.73;;;3.40;;
71896;SDS011;59767;51.344;12.362;2023-08-21T00:42:04;8.68;;;3.22;;
71896;SDS011;59767;51.344;12.362;2023-08-21T00:45:08;8.55;;;3.08;;
71896;SDS011;59767;51.344;12.362;2023-08-21T00:48:13;8.50;;;3.50;;
71896;SDS011;59767;51.344;12.362;2023-08-21T00:51:18;10.73;;;3.00;;
71896;SDS011;59767;51.344;12.362;2023-08-21T00:54:23;7.18;;;3.20;;
71896;SDS011;59767;51.344;12.362;2023-08-21T00:57:27;6.80;;;3.40;;
71896;SDS011;59767;51.344;12.362;2023-08-21T01:00:32;9.02;;;3.35;;
71896;SDS011;59767;51.344;12.362;2023-08-21T01:03:37;13.57;;;3.13;;
71896;SDS011;59767;51.344;12.362;2023-08-21T01:06:41;11.13;;;3.60;;
71896;SDS011;59767;51.344;12.362;2023-08-21T01:09:49;10.98;;;3.83;;
71896;SDS011;59767;51.344;12.362;2023-08-21T01:16:15;11.60;;;3.40;;
71896;SDS011;59767;51.344;12.362;2023-08-21T01:19:36;7.72;;;3.45;;
71896;SDS011;59767;51.344;12.362;2023-08-21T01:22:43;11.35;;;3.50;;
71896;SDS011;59767;51.344;12.362;2023-08-21T01:25:49;9.32;;;3.50;;
71896;SDS011;59767;51.344;12.362;2023-08-21T01:28:53;11.18;;;3.80;;
71896;SDS011;59767;51.344;12.362;2023-08-21T01:32:02;11.70;;;3.35;;
71896;SDS011;59767;51.344;12.362;2023-08-21T01:35:17;11.55;;;3.67;;
71896;SDS011;59767;51.344;12.362;2023-08-21T01:38:22;6.78;;;3.05;;
71896;SDS011;59767;51.344;12.362;2023-08-21T01:41:26;9.88;;;3.40;;
71896;SDS011;59767;51.344;12.362;2023-08-21T01:44:30;10.13;;;3.40;;
71896;SDS011;59767;51.344;12.362;2023-08-21T01:47:35;9.50;;;3.58;;
71896;SDS011;59767;51.344;12.362;2023-08-21T01:50:39;9.18;;;3.50;;
71896;SDS011;59767;51.344;12.362;2023-08-21T01:53:43;8.98;;;3.30;;
71896;SDS011;59767;51.344;12.362;2023-08-21T01:56:47;8.98;;;3.30;;
71896;SDS011;59767;51.344;12.362;2023-08-21T01:59:51;9.55;;;3.50;;
71896;SDS011;59767;51.344;12.362;2023-08-21T02:02:55;12.50;;;3.35;;
71896;SDS011;59767;51.344;12.362;2023-08-21T02:06:00;7.38;;;3.75;;
71896;SDS011;59767;51.344;12.362;2023-08-21T02:09:04;11.27;;;3.60;;
71896;SDS011;59767;51.344;12.362;2023-08-21T02:12:08;10.73;;;3.55;;
71896;SDS011;59767;51.344;12.362;2023-08-21T02:15:12;9.73;;;3.70;;
71896;SDS011;59767;51.344;12.362;2023-08-21T02:18:17;15.68;;;4.35;;
71896;SDS011;59767;51.344;12.362;2023-08-21T02:21:21;11.15;;;3.80;;
71896;SDS011;59767;51.344;12.362;2023-08-21T02:24:25;14.43;;;3.72;;
71896;SDS011;59767;51.344;12.362;2023-08-21T02:27:29;12.02;;;3.65;;
71896;SDS011;59767;51.344;12.362;2023-08-21T02:30:33;8.00;;;3.60;;
71896;SDS011;59767;51.344;12.362;2023-08-21T02:33:38;9.00;;;3.58;;
71896;SDS011;59767;51.344;12.362;2023-08-21T02:36:42;12.90;;;3.72;;
71896;SDS011;59767;51.344;12.362;2023-08-21T02:39:46;10.70;;;3.60;;
71896;SDS011;59767;51.344;12.362;2023-08-21T02:42:51;8.52;;;3.70;;
71896;SDS011;59767;51.344;12.362;2023-08-21T02:45:55;10.00;;;3.63;;
71896;SDS011;59767;51.344;12.362;2023-08-21T02:48:59;10.27;;;3.80;;
71896;SDS011;59767;51.344;12.362;2023-08-21T02:52:03;8.48;;;3.58;;
71896;SDS011;59767;51.344;12.362;2023-08-21T02:55:07;12.63;;;3.53;;
71896;SDS011;59767;51.344;12.362;2023-08-21T02:58:11;8.90;;;3.50;;
71896;SDS011;59767;51.344;12.362;2023-08-21T03:01:16;11.40;;;3.42;;
71896;SDS011;59767;51.344;12.362;2023-08-21T03:04:21;11.27;;;3.80;;
71896;SDS011;59767;51.344;12.362;2023-08-21T03:07:26;10.68;;;3.90;;
71896;SDS011;59767;51.344;12.362;2023-08-21T03:10:31;9.77;;;3.90;;
71896;SDS011;59767;51.344;12.362;2023-08-21T03:13:37;11.27;;;3.60;;
71896;SDS011;59767;51.344;12.362;2023-08-21T03:16:42;10.50;;;3.83;;
71896;SDS011;59767;51.344;12.362;2023-08-21T03:19:46;9.43;;;3.55;;
71896;SDS011;59767;51.344;12.362;2023-08-21T03:22:51;9.35;;;3.55;;
71896;SDS011;59767;51.344;12.362;2023-08-21T03:25:55;11.95;;;3.65;;
71896;SDS011;59767;51.344;12.362;2023-08-21T03:28:59;11.80;;;4.00;;
71896;SDS011;59767;51.344;12.362;2023-08-21T03:32:03;16.50;;;3.97;;
71896;SDS011;59767;51.344;12.362;2023-08-21T03:35:07;10.95;;;3.97;;
71896;SDS011;59767;51.344;12.362;2023-08-21T03:38:11;12.13;;;4.13;;
71896;SDS011;59767;51.344;12.362;2023-08-21T03:41:15;11.15;;;4.18;;
71896;SDS011;59767;51.344;12.362;2023-08-21T03:44:20;9.80;;;3.88;;
71896;SDS011;59767;51.344;12.362;2023-08-21T03:47:24;10.10;;;4.40;;
71896;SDS011;59767;51.344;12.362;2023-08-21T03:50:28;14.07;;;3.97;;
71896;SDS011;59767;51.344;12.362;2023-08-21T03:53:31;9.75;;;4.32;;
71896;SDS011;59767;51.344;12.362;2023-08-21T03:56:36;8.93;;;4.15;;
71896;SDS011;59767;51.344;12.362;2023-08-21T03:59:40;9.60;;;4.03;;
71896;SDS011;59767;51.344;12.362;2023-08-21T04:02:44;10.75;;;4.00;;
71896;SDS011;59767;51.344;12.362;2023-08-21T04:05:48;10.20;;;3.80;;
71896;SDS011;59767;51.344;12.362;2023-08-21T04:08:52;12.77;;;3.70;;
71896;SDS011;59767;51.344;12.362;2023-08-21T04:11:59;12.85;;;3.88;;
71896;SDS011;59767;51.344;12.362;2023-08-21T04:15:03;10.02;;;4.20;;
71896;SDS011;59767;51.344;12.362;2023-08-21T04:18:07;8.77;;;3.60;;
71896;SDS011;59767;51.344;12.362;2023-08-21T04:21:11;17.52;;;3.75;;
71896;SDS011;59767;51.344;12.362;2023-08-21T04:24:15;8.82;;;3.80;;
71896;SDS011;59767;51.344;12.362;2023-08-21T04:27:20;10.52;;;4.03;;
71896;SDS011;59767;51.344;12.362;2023-08-21T04:30:24;11.75;;;4.40;;
71896;SDS011;59767;51.344;12.362;2023-08-21T04:33:28;9.27;;;4.10;;
71896;SDS011;59767;51.344;12.362;2023-08-21T04:36:33;10.27;;;4.00;;
71896;SDS011;59767;51.344;12.362;2023-08-21T04:39:37;15.27;;;4.65;;
71896;SDS011;59767;51.344;12.362;2023-08-21T04:42:42;10.70;;;4.97;;
71896;SDS011;59767;51.344;12.362;2023-08-21T04:45:50;12.80;;;4.90;;
71896;SDS011;59767;51.344;12.362;2023-08-21T04:48:57;14.18;;;5.07;;
71896;SDS011;59767;51.344;12.362;2023-08-21T04:52:01;18.17;;;5.15;;
71896;SDS011;59767;51.344;12.362;2023-08-21T04:55:05;9.93;;;5.18;;
71896;SDS011;59767;51.344;12.362;2023-08-21T04:58:11;14.45;;;5.13;;
71896;SDS011;59767;51.344;12.362;2023-08-21T05:01:15;12.80;;;5.45;;
71896;SDS011;59767;51.344;12.362;2023-08-21T05:04:19;14.48;;;5.65;;
71896;SDS011;59767;51.344;12.362;2023-08-21T05:07:23;14.93;;;5.47;;
71896;SDS011;59767;51.344;12.362;2023-08-21T05:10:27;10.77;;;5.05;;
71896;SDS011;59767;51.344;12.362;2023-08-21T05:13:32;14.43;;;5.50;;
71896;SDS011;59767;51.344;12.362;2023-08-21T05:16:36;17.90;;;5.60;;
71896;SDS011;59767;51.344;12.362;2023-08-21T05:19:40;14.35;;;5.43;;
71896;SDS011;59767;51.344;12.362;2023-08-21T05:22:44;16.95;;;5.45;;
71896;SDS011;59767;51.344;12.362;2023-08-21T05:25:49;12.82;;;5.35;;
71896;SDS011;59767;51.344;12.362;2023-08-21T05:28:53;18.25;;;5.50;;
71896;SDS011;59767;51.344;12.362;2023-08-21T05:31:57;13.32;;;5.63;;
71896;SDS011;59767;51.344;12.362;2023-08-21T05:35:01;12.00;;;5.15;;
71896;SDS011;59767;51.344;12.362;2023-08-21T05:38:05;15.93;;;4.88;;
71896;SDS011;59767;51.344;12.362;2023-08-21T05:41:09;13.57;;;5.60;;
71896;SDS011;59767;51.344;12.362;2023-08-21T05:44:14;12.98;;;5.75;;
71896;SDS011;59767;51.344;12.362;2023-08-21T05:47:18;14.27;;;6.00;;
71896;SDS011;59767;51.344;12.362;2023-08-21T05:50:22;14.32;;;5.85;;
71896;SDS011;59767;51.344;12.362;2023-08-21T05:53:27;12.68;;;5.80;;
71896;SDS011;59767;51.344;12.362;2023-08-21T05:56:31;13.85;;;5.43;;
71896;SDS011;59767;51.344;12.362;2023-08-21T05:59:42;14.50;;;5.18;;
71896;SDS011;59767;51.344;12.362;2023-08-21T06:02:47;12.02;;;5.68;;
71896;SDS011;59767;51.344;12.362;2023-08-21T06:05:51;14.30;;;6.22;;
71896;SDS011;59767;51.344;12.362;2023-08-21T06:08:56;19.00;;;5.75;;
71896;SDS011;59767;51.344;12.362;2023-08-21T06:12:00;11.15;;;5.20;;
71896;SDS011;59767;51.344;12.362;2023-08-21T06:15:07;14.10;;;6.13;;
71896;SDS011;59767;51.344;12.362;2023-08-21T06:18:15;17.80;;;5.93;;
71896;SDS011;59767;51.344;12.362;2023-08-21T06:21:20;17.27;;;5.70;;
71896;SDS011;59767;51.344;12.362;2023-08-21T06:24:24;19.73;;;5.57;;
71896;SDS011;59767;51.344;12.362;2023-08-21T06:27:28;14.77;;;5.45;;
71896;SDS011;59767;51.344;12.362;2023-08-21T06:30:33;10.38;;;5.05;;
71896;SDS011;59767;51.344;12.362;2023-08-21T06:33:38;15.18;;;5.60;;
71896;SDS011;59767;51.344;12.362;2023-08-21T06:36:42;19.40;;;7.60;;
71896;SDS011;59767;51.344;12.362;2023-08-21T06:39:46;13.45;;;5.13;;
71896;SDS011;59767;51.344;12.362;2023-08-21T06:42:51;16.58;;;5.20;;
71896;SDS011;59767;51.344;12.362;2023-08-21T06:45:56;16.73;;;4.70;;
71896;SDS011;59767;51.344;12.362;2023-08-21T06:49:00;11.57;;;5.18;;
71896;SDS011;59767;51.344;12.362;2023-08-21T06:52:04;13.45;;;5.70;;
71896;SDS011;59767;51.344;12.362;2023-08-21T06:55:08;16.77;;;5.38;;
71896;SDS011;59767;51.344;12.362;2023-08-21T06:58:13;17.85;;;4.97;;
71896;SDS011;59767;51.344;12.362;2023-08-21T07:01:17;14.02;;;4.65;;
71896;SDS011;59767;51.344;12.362;2023-08-21T07:04:21;8.27;;;4.22;;
71896;SDS011;59767;51.344;12.362;2023-08-21T07:07:25;12.48;;;4.40;;
71896;SDS011;59767;51.344;12.362;2023-08-21T07:10:29;13.88;;;4.70;;
71896;SDS011;59767;51.344;12.362;2023-08-21T07:13:34;14.07;;;4.78;;
71896;SDS011;59767;51.344;12.362;2023-08-21T07:16:38;11.60;;;4.85;;
71896;SDS011;59767;51.344;12.362;2023-08-21T07:19:42;9.57;;;4.40;;
71896;SDS011;59767;51.344;12.362;2023-08-21T07:22:49;14.43;;;4.70;;
71896;SDS011;59767;51.344;12.362;2023-08-21T07:25:54;12.52;;;4.13;;
71896;SDS011;59767;51.344;12.362;2023-08-21T07:28:58;10.57;;;4.20;;
71896;SDS011;59767;51.344;12.362;2023-08-21T07:32:02;14.48;;;4.72;;
71896;SDS011;59767;51.344;12.362;2023-08-21T07:35:07;12.15;;;4.82;;
71896;SDS011;59767;51.344;12.362;2023-08-21T07:38:11;16.27;;;4.60;;
71896;SDS011;59767;51.344;12.362;2023-08-21T07:41:15;12.45;;;4.85;;
71896;SDS011;59767;51.344;12.362;2023-08-21T07:44:19;13.65;;;5.13;;
71896;SDS011;59767;51.344;12.362;2023-08-21T07:47:23;11.35;;;5.10;;
71896;SDS011;59767;51.344;12.362;2023-08-21T07:50:28;16.63;;;5.70;;
71896;SDS011;59767;51.344;12.362;2023-08-21T07:53:32;16.88;;;4.95;;
71896;SDS011;59767;51.344;12.362;2023-08-21T07:56:38;10.82;;;5.38;;
71896;SDS011;59767;51.344;12.362;2023-08-21T07:59:44;13.93;;;4.60;;
71896;SDS011;59767;51.344;12.362;2023-08-21T08:02:48;15.07;;;5.40;;
71896;SDS011;59767;51.344;12.362;2023-08-21T08:05:52;13.98;;;5.47;;
71896;SDS011;59767;51.344;12.362;2023-08-21T08:08:58;11.88;;;5.70;;
71896;SDS011;59767;51.344;12.362;2023-08-21T08:12:03;17.73;;;6.07;;
71896;SDS011;59767;51.344;12.362;2023-08-21T08:15:11;14.85;;;6.20;;
71896;SDS011;59767;51.344;12.362;2023-08-21T08:18:15;17.92;;;6.20;;
71896;SDS011;59767;51.344;12.362;2023-08-21T08:21:19;13.25;;;6.00;;
71896;SDS011;59767;51.344;12.362;2023-08-21T08:24:24;14.88;;;6.25;;
71896;SDS011;59767;51.344;12.362;2023-08-21T08:27:28;17.33;;;5.90;;
71896;SDS011;59767;51.344;12.362;2023-08-21T08:30:33;10.93;;;5.28;;
71896;SDS011;59767;51.344;12.362;2023-08-21T08:33:37;10.75;;;5.55;;
71896;SDS011;59767;51.344;12.362;2023-08-21T08:36:41;12.35;;;5.10;;
71896;SDS011;59767;51.344;12.362;2023-08-21T08:39:46;12.90;;;4.90;;
71896;SDS011;59767;51.344;12.362;2023-08-21T08:42:51;15.73;;;5.43;;
71896;SDS011;59767;51.344;12.362;2023-08-21T08:45:56;16.70;;;5.30;;
71896;SDS011;59767;51.344;12.362;2023-08-21T08:49:02;13.50;;;4.65;;
71896;SDS011;59767;51.344;12.362;2023-08-21T08:52:07;14.43;;;4.55;;
71896;SDS011;59767;51.344;12.362;2023-08-21T08:55:12;20.23;;;4.93;;
71896;SDS011;59767;51.344;12.362;2023-08-21T08:58:16;14.05;;;4.63;;
71896;SDS011;59767;51.344;12.362;2023-08-21T09:01:21;11.82;;;4.85;;
71896;SDS011;59767;51.344;12.362;2023-08-21T09:04:25;11.55;;;4.50;;
71896;SDS011;59767;51.344;12.362;2023-08-21T09:07:29;11.98;;;3.90;;
71896;SDS011;59767;51.344;12.362;2023-08-21T09:10:34;9.68;;;4.30;;
71896;SDS011;59767;51.344;12.362;2023-08-21T09:13:40;8.15;;;3.72;;
71896;SDS011;59767;51.344;12.362;2023-08-21T09:16:58;11.13;;;3.60;;
71896;SDS011;59767;51.344;12.362;2023-08-21T09:23:17;10.00;;;4.03;;
71896;SDS011;59767;51.344;12.362;2023-08-21T09:26:22;11.75;;;3.80;;
71896;SDS011;59767;51.344;12.362;2023-08-21T09:29:27;9.80;;;3.42;;
71896;SDS011;59767;51.344;12.362;2023-08-21T09:32:58;11.98;;;3.70;;
71896;SDS011;59767;51.344;12.362;2023-08-21T09:36:09;10.35;;;3.25;;
71896;SDS011;59767;51.344;12.362;2023-08-21T09:39:16;9.88;;;3.50;;
71896;SDS011;59767;51.344;12.362;2023-08-21T09:42:20;7.43;;;3.00;;
71896;SDS011;59767;51.344;12.362;2023-08-21T09:45:27;11.23;;;3.10;;
71896;SDS011;59767;51.344;12.362;2023-08-21T09:48:33;9.18;;;3.30;;
71896;SDS011;59767;51.344;12.362;2023-08-21T09:51:38;8.20;;;3.30;;
71896;SDS011;59767;51.344;12.362;2023-08-21T09:54:42;8.82;;;3.30;;
71896;SDS011;59767;51.344;12.362;2023-08-21T09:57:46;9.02;;;3.25;;
71896;SDS011;59767;51.344;12.362;2023-08-21T10:00:56;11.00;;;3.47;;
71896;SDS011;59767;51.344;12.362;2023-08-21T10:04:02;10.48;;;3.30;;
71896;SDS011;59767;51.344;12.362;2023-08-21T10:07:10;10.38;;;3.10;;
71896;SDS011;59767;51.344;12.362;2023-08-21T10:10:16;10.05;;;3.25;;
71896;SDS011;59767;51.344;12.362;2023-08-21T10:13:21;8.73;;;3.00;;
71896;SDS011;59767;51.344;12.362;2023-08-21T10:16:25;10.07;;;3.65;;
71896;SDS011;59767;51.344;12.362;2023-08-21T10:19:30;11.07;;;3.17;;
71896;SDS011;59767;51.344;12.362;2023-08-21T10:22:43;8.13;;;2.72;;
71896;SDS011;59767;51.344;12.362;2023-08-21T10:25:55;9.50;;;2.80;;
71896;SDS011;59767;51.344;12.362;2023-08-21T10:29:05;9.40;;;2.55;;
71896;SDS011;59767;51.344;12.362;2023-08-21T10:32:13;10.10;;;2.60;;
71896;SDS011;59767;51.344;12.362;2023-08-21T10:35:18;6.97;;;2.72;;
71896;SDS011;59767;51.344;12.362;2023-08-21T10:38:24;8.27;;;2.58;;
71896;SDS011;59767;51.344;12.362;2023-08-21T10:41:28;10.02;;;3.05;;
71896;SDS011;59767;51.344;12.362;2023-08-21T10:47:45;7.40;;;2.78;;
71896;SDS011;59767;51.344;12.362;2023-08-21T10:50:51;6.50;;;2.58;;
71896;SDS011;59767;51.344;12.362;2023-08-21T10:53:56;6.28;;;2.30;;
71896;SDS011;59767;51.344;12.362;2023-08-21T10:57:02;6.68;;;2.42;;
71896;SDS011;59767;51.344;12.362;2023-08-21T11:00:16;8.60;;;2.30;;
71896;SDS011;59767;51.344;12.362;2023-08-21T11:03:21;4.95;;;2.10;;
71896;SDS011;59767;51.344;12.362;2023-08-21T11:06:25;6.93;;;1.90;;
71896;SDS011;59767;51.344;12.362;2023-08-21T11:09:29;5.90;;;2.20;;
71896;SDS011;59767;51.344;12.362;2023-08-21T11:12:34;4.57;;;2.00;;
71896;SDS011;59767;51.344;12.362;2023-08-21T11:15:38;6.47;;;2.50;;
71896;SDS011;59767;51.344;12.362;2023-08-21T11:18:42;5.93;;;2.10;;
71896;SDS011;59767;51.344;12.362;2023-08-21T11:21:51;8.77;;;2.40;;
71896;SDS011;59767;51.344;12.362;2023-08-21T11:24:55;6.90;;;2.13;;
71896;SDS011;59767;51.344;12.362;2023-08-21T11:28:00;5.40;;;2.10;;
71896;SDS011;59767;51.344;12.362;2023-08-21T11:31:06;7.80;;;2.40;;
71896;SDS011;59767;51.344;12.362;2023-08-21T11:34:10;7.20;;;2.50;;
71896;SDS011;59767;51.344;12.362;2023-08-21T11:37:26;6.90;;;2.50;;
71896;SDS011;59767;51.344;12.362;2023-08-21T11:40:34;8.15;;;2.70;;
71896;SDS011;59767;51.344;12.362;2023-08-21T11:43:39;5.90;;;2.35;;
71896;SDS011;59767;51.344;12.362;2023-08-21T11:46:46;6.35;;;2.83;;
71896;SDS011;59767;51.344;12.362;2023-08-21T11:49:50;6.70;;;2.58;;
71896;SDS011;59767;51.344;12.362;2023-08-21T11:52:55;7.18;;;2.67;;
71896;SDS011;59767;51.344;12.362;2023-08-21T11:55:59;5.78;;;2.38;;
71896;SDS011;59767;51.344;12.362;2023-08-21T11:59:03;6.07;;;2.55;;
71896;SDS011;59767;51.344;12.362;2023-08-21T12:02:16;8.80;;;2.70;;
71896;SDS011;59767;51.344;12.362;2023-08-21T12:05:22;6.13;;;2.55;;
71896;SDS011;59767;51.344;12.362;2023-08-21T12:08:26;9.07;;;3.10;;
71896;SDS011;59767;51.344;12.362;2023-08-21T12:11:30;9.05;;;3.20;;
71896;SDS011;59767;51.344;12.362;2023-08-21T12:14:33;7.65;;;3.10;;
71896;SDS011;59767;51.344;12.362;2023-08-21T12:17:43;7.88;;;3.40;;
71896;SDS011;59767;51.344;12.362;2023-08-21T12:20:47;8.38;;;2.67;;
71896;SDS011;59767;51.344;12.362;2023-08-21T12:23:51;7.70;;;2.83;;
71896;SDS011;59767;51.344;12.362;2023-08-21T12:26:55;6.53;;;2.70;;
71896;SDS011;59767;51.344;12.362;2023-08-21T12:29:59;12.32;;;3.78;;
71896;SDS011;59767;51.344;12.362;2023-08-21T12:33:04;6.97;;;2.78;;
71896;SDS011;59767;51.344;12.362;2023-08-21T12:36:25;8.07;;;3.15;;
71896;SDS011;59767;51.344;12.362;2023-08-21T12:39:29;9.70;;;3.30;;
71896;SDS011;59767;51.344;12.362;2023-08-21T12:42:34;6.13;;;3.22;;
71896;SDS011;59767;51.344;12.362;2023-08-21T12:45:39;9.32;;;3.20;;
71896;SDS011;59767;51.344;12.362;2023-08-21T12:48:51;6.88;;;3.00;;
71896;SDS011;59767;51.344;12.362;2023-08-21T12:51:55;6.28;;;2.90;;
71896;SDS011;59767;51.344;12.362;2023-08-21T12:54:59;12.57;;;3.50;;
71896;SDS011;59767;51.344;12.362;2023-08-21T12:58:05;7.70;;;2.88;;
71896;SDS011;59767;51.344;12.362;2023-08-21T13:01:09;11.07;;;3.33;;
71896;SDS011;59767;51.344;12.362;2023-08-21T13:04:14;10.50;;;3.15;;
71896;SDS011;59767;51.344;12.362;2023-08-21T13:07:17;8.25;;;3.28;;
71896;SDS011;59767;51.344;12.362;2023-08-21T13:10:22;8.15;;;3.10;;
71896;SDS011;59767;51.344;12.362;2023-08-21T13:13:26;6.63;;;3.08;;
71896;SDS011;59767;51.344;12.362;2023-08-21T13:16:30;7.53;;;3.10;;
71896;SDS011;59767;51.344;12.362;2023-08-21T13:19:34;6.50;;;3.22;;
71896;SDS011;59767;51.344;12.362;2023-08-21T13:22:48;8.07;;;3.00;;
71896;SDS011;59767;51.344;12.362;2023-08-21T13:25:56;5.80;;;3.00;;
71896;SDS011;59767;51.344;12.362;2023-08-21T13:29:01;6.35;;;3.10;;
71896;SDS011;59767;51.344;12.362;2023-08-21T13:32:06;8.32;;;3.00;;
71896;SDS011;59767;51.344;12.362;2023-08-21T13:35:10;10.23;;;3.22;;
71896;SDS011;59767;51.344;12.362;2023-08-21T13:38:15;20.55;;;3.53;;
71896;SDS011;59767;51.344;12.362;2023-08-21T13:41:19;6.63;;;3.10;;
71896;SDS011;59767;51.344;12.362;2023-08-21T13:44:23;6.22;;;2.95;;
71896;SDS011;59767;51.344;12.362;2023-08-21T13:47:28;9.43;;;3.00;;
71896;SDS011;59767;51.344;12.362;2023-08-21T13:50:31;8.43;;;3.28;;
71896;SDS011;59767;51.344;12.362;2023-08-21T13:53:36;8.13;;;3.00;;
71896;SDS011;59767;51.344;12.362;2023-08-21T13:56:40;9.27;;;3.10;;
71896;SDS011;59767;51.344;12.362;2023-08-21T13:59:44;8.30;;;2.83;;
71896;SDS011;59767;51.344;12.362;2023-08-21T14:02:48;8.07;;;2.80;;
71896;SDS011;59767;51.344;12.362;2023-08-21T14:05:52;8.00;;;2.90;;
71896;SDS011;59767;51.344;12.362;2023-08-21T14:08:56;5.78;;;3.05;;
71896;SDS011;59767;51.344;12.362;2023-08-21T14:12:00;6.82;;;2.90;;
71896;SDS011;59767;51.344;12.362;2023-08-21T14:15:04;7.45;;;3.00;;
71896;SDS011;59767;51.344;12.362;2023-08-21T14:18:09;8.55;;;2.92;;
71896;SDS011;59767;51.344;12.362;2023-08-21T14:21:13;9.88;;;2.90;;
71896;SDS011;59767;51.344;12.362;2023-08-21T14:24:18;7.82;;;2.90;;
71896;SDS011;59767;51.344;12.362;2023-08-21T14:27:22;8.13;;;2.83;;
71896;SDS011;59767;51.344;12.362;2023-08-21T14:30:26;10.80;;;2.65;;
71896;SDS011;59767;51.344;12.362;2023-08-21T14:33:31;7.90;;;2.83;;
71896;SDS011;59767;51.344;12.362;2023-08-21T14:36:35;8.77;;;2.80;;
71896;SDS011;59767;51.344;12.362;2023-08-21T14:39:39;10.88;;;2.80;;
71896;SDS011;59767;51.344;12.362;2023-08-21T14:42:43;6.03;;;2.50;;
71896;SDS011;59767;51.344;12.362;2023-08-21T14:45:48;6.05;;;2.65;;
71896;SDS011;59767;51.344;12.362;2023-08-21T14:48:52;8.32;;;2.90;;
71896;SDS011;59767;51.344;12.362;2023-08-21T14:51:56;10.73;;;2.75;;
71896;SDS011;59767;51.344;12.362;2023-08-21T14:55:00;7.32;;;2.70;;
71896;SDS011;59767;51.344;12.362;2023-08-21T14:58:04;7.68;;;3.10;;
71896;SDS011;59767;51.344;12.362;2023-08-21T15:01:11;7.63;;;2.95;;
71896;SDS011;59767;51.344;12.362;2023-08-21T15:04:15;6.30;;;2.80;;
71896;SDS011;59767;51.344;12.362;2023-08-21T15:07:19;6.72;;;3.00;;
71896;SDS011;59767;51.344;12.362;2023-08-21T15:10:23;7.30;;;2.85;;
71896;SDS011;59767;51.344;12.362;2023-08-21T15:13:28;7.28;;;3.00;;
71896;SDS011;59767;51.344;12.362;2023-08-21T15:16:32;6.68;;;2.80;;
71896;SDS011;59767;51.344;12.362;2023-08-21T15:19:36;6.35;;;2.83;;
71896;SDS011;59767;51.344;12.362;2023-08-21T15:22:40;9.23;;;2.97;;
71896;SDS011;59767;51.344;12.362;2023-08-21T15:25:44;6.82;;;3.00;;
71896;SDS011;59767;51.344;12.362;2023-08-21T15:28:49;10.10;;;3.25;;
71896;SDS011;59767;51.344;12.362;2023-08-21T15:31:56;8.05;;;2.90;;
71896;SDS011;59767;51.344;12.362;2023-08-21T15:35:00;7.47;;;3.03;;
71896;SDS011;59767;51.344;12.362;2023-08-21T15:38:05;10.88;;;2.90;;
71896;SDS011;59767;51.344;12.362;2023-08-21T15:41:09;8.75;;;3.03;;
71896;SDS011;59767;51.344;12.362;2023-08-21T15:44:13;6.63;;;2.92;;
71896;SDS011;59767;51.344;12.362;2023-08-21T15:47:18;8.65;;;2.90;;
71896;SDS011;59767;51.344;12.362;2023-08-21T15:50:42;7.30;;;2.92;;
71896;SDS011;59767;51.344;12.362;2023-08-21T15:53:46;5.35;;;2.53;;
71896;SDS011;59767;51.344;12.362;2023-08-21T15:56:50;8.70;;;2.95;;
71896;SDS011;59767;51.344;12.362;2023-08-21T15:59:54;5.70;;;2.90;;
71896;SDS011;59767;51.344;12.362;2023-08-21T16:02:58;8.55;;;2.92;;
71896;SDS011;59767;51.344;12.362;2023-08-21T16:06:03;9.35;;;2.67;;
71896;SDS011;59767;51.344;12.362;2023-08-21T16:09:07;10.48;;;2.72;;
71896;SDS011;59767;51.344;12.362;2023-08-21T16:12:11;10.57;;;3.10;;
71896;SDS011;59767;51.344;12.362;2023-08-21T16:15:15;8.20;;;2.80;;
71896;SDS011;59767;51.344;12.362;2023-08-21T16:18:20;9.98;;;3.10;;
71896;SDS011;59767;51.344;12.362;2023-08-21T16:21:24;10.20;;;3.00;;
71896;SDS011;59767;51.344;12.362;2023-08-21T16:24:29;7.35;;;2.85;;
71896;SDS011;59767;51.344;12.362;2023-08-21T16:27:33;7.43;;;2.80;;
71896;SDS011;59767;51.344;12.362;2023-08-21T16:30:38;8.07;;;2.55;;
71896;SDS011;59767;51.344;12.362;2023-08-21T16:33:42;5.47;;;2.70;;
71896;SDS011;59767;51.344;12.362;2023-08-21T16:36:47;6.15;;;2.85;;
71896;SDS011;59767;51.344;12.362;2023-08-21T16:39:52;9.13;;;2.83;;
71896;SDS011;59767;51.344;12.362;2023-08-21T16:42:55;10.68;;;2.70;;
71896;SDS011;59767;51.344;12.362;2023-08-21T16:46:00;7.35;;;2.70;;
71896;SDS011;59767;51.344;12.362;2023-08-21T16:49:04;9.18;;;3.05;;
71896;SDS011;59767;51.344;12.362;2023-08-21T16:52:09;9.52;;;2.80;;
71896;SDS011;59767;51.344;12.362;2023-08-21T16:55:13;7.93;;;2.97;;
71896;SDS011;59767;51.344;12.362;2023-08-21T16:58:17;8.18;;;2.63;;
71896;SDS011;59767;51.344;12.362;2023-08-21T17:01:22;7.65;;;3.78;;
71896;SDS011;59767;51.344;12.362;2023-08-21T17:04:26;10.75;;;2.72;;
71896;SDS011;59767;51.344;12.362;2023-08-21T17:07:34;9.80;;;2.90;;
71896;SDS011;59767;51.344;12.362;2023-08-21T17:10:42;8.05;;;2.60;;
71896;SDS011;59767;51.344;12.362;2023-08-21T17:13:46;7.10;;;2.65;;
71896;SDS011;59767;51.344;12.362;2023-08-21T17:16:53;6.93;;;3.00;;
71896;SDS011;59767;51.344;12.362;2023-08-21T17:19:57;9.23;;;3.08;;
71896;SDS011;59767;51.344;12.362;2023-08-21T17:23:01;8.25;;;3.50;;
71896;SDS011;59767;51.344;12.362;2023-08-21T17:26:07;9.00;;;3.67;;
71896;SDS011;59767;51.344;12.362;2023-08-21T17:29:11;11.57;;;3.70;;
71896;SDS011;59767;51.344;12.362;2023-08-21T17:32:15;11.02;;;3.90;;
71896;SDS011;59767;51.344;12.362;2023-08-21T17:35:20;8.18;;;3.90;;
71896;SDS011;59767;51.344;12.362;2023-08-21T17:38:24;8.57;;;3.08;;
71896;SDS011;59767;51.344;12.362;2023-08-21T17:41:28;12.43;;;3.17;;
71896;SDS011;59767;51.344;12.362;2023-08-21T17:44:33;8.40;;;2.90;;
71896;SDS011;59767;51.344;12.362;2023-08-21T17:47:37;11.25;;;3.13;;
71896;SDS011;59767;51.344;12.362;2023-08-21T17:50:42;8.98;;;2.75;;
71896;SDS011;59767;51.344;12.362;2023-08-21T17:53:47;6.40;;;2.80;;
71896;SDS011;59767;51.344;12.362;2023-08-21T17:56:53;5.07;;;2.45;;
71896;SDS011;59767;51.344;12.362;2023-08-21T17:59:57;10.50;;;2.80;;
71896;SDS011;59767;51.344;12.362;2023-08-21T18:03:02;6.85;;;2.60;;
71896;SDS011;59767;51.344;12.362;2023-08-21T18:06:06;7.03;;;2.80;;
71896;SDS011;59767;51.344;12.362;2023-08-21T18:09:11;8.38;;;3.40;;
71896;SDS011;59767;51.344;12.362;2023-08-21T18:12:15;7.18;;;2.80;;
71896;SDS011;59767;51.344;12.362;2023-08-21T18:15:19;12.00;;;3.50;;
71896;SDS011;59767;51.344;12.362;2023-08-21T18:18:23;8.77;;;2.67;;
71896;SDS011;59767;51.344;12.362;2023-08-21T18:21:28;6.25;;;2.33;;